sensor_id;sensor_type;location;lat;lon;timestamp;P1;durP1;ratioP1;P2;durP2;ratioP2
22768;SDS011;13001;51.968;5.918;2023-04-22T00:00:06;364.90;;;343.60;;
22768;SDS011;13001;51.968;5.918;2023-04-22T00:02:34;365.87;;;344.57;;
22768;SDS011;13001;51.968;5.918;2023-04-22T00:05:02;372.25;;;350.35;;
22768;SDS011;13001;51.968;5.918;2023-04-22T00:07:29;369.50;;;347.73;;
22768;SDS011;13001;51.968;5.918;2023-04-22T00:09:57;380.85;;;358.52;;
22768;SDS011;13001;51.968;5.918;2023-04-22T00:12:24;378.40;;;356.30;;
22768;SDS011;13001;51.968;5.918;2023-04-22T00:14:51;371.32;;;349.52;;
22768;SDS011;13001;51.968;5.918;2023-04-22T00:17:19;370.12;;;348.60;;
22768;SDS011;13001;51.968;5.918;2023-04-22T00:19:46;351.50;;;331.05;;
22768;SDS011;13001;51.968;5.918;2023-04-22T00:22:14;347.40;;;327.32;;
22768;SDS011;13001;51.968;5.918;2023-04-22T00:24:41;328.50;;;309.35;;
22768;SDS011;13001;51.968;5.918;2023-04-22T00:27:08;308.63;;;290.80;;
22768;SDS011;13001;51.968;5.918;2023-04-22T00:29:36;312.63;;;294.73;;
22768;SDS011;13001;51.968;5.918;2023-04-22T00:32:03;317.35;;;299.12;;
22768;SDS011;13001;51.968;5.918;2023-04-22T00:34:30;308.87;;;291.23;;
22768;SDS011;13001;51.968;5.918;2023-04-22T00:36:57;309.70;;;291.95;;
22768;SDS011;13001;51.968;5.918;2023-04-22T00:39:25;307.02;;;289.25;;
22768;SDS011;13001;51.968;5.918;2023-04-22T00:41:52;297.50;;;280.30;;
22768;SDS011;13001;51.968;5.918;2023-04-22T00:44:19;305.25;;;287.65;;
22768;SDS011;13001;51.968;5.918;2023-04-22T00:46:47;298.00;;;280.70;;
22768;SDS011;13001;51.968;5.918;2023-04-22T00:49:14;307.43;;;289.50;;
22768;SDS011;13001;51.968;5.918;2023-04-22T00:51:42;302.22;;;284.43;;
22768;SDS011;13001;51.968;5.918;2023-04-22T00:54:09;302.90;;;285.17;;
22768;SDS011;13001;51.968;5.918;2023-04-22T00:56:36;300.00;;;282.12;;
22768;SDS011;13001;51.968;5.918;2023-04-22T00:59:04;298.67;;;280.87;;
22768;SDS011;13001;51.968;5.918;2023-04-22T01:01:31;296.77;;;279.20;;
22768;SDS011;13001;51.968;5.918;2023-04-22T01:03:59;288.00;;;271.17;;
22768;SDS011;13001;51.968;5.918;2023-04-22T01:06:26;285.45;;;268.73;;
22768;SDS011;13001;51.968;5.918;2023-04-22T01:08:54;296.73;;;279.32;;
22768;SDS011;13001;51.968;5.918;2023-04-22T01:11:22;301.60;;;283.82;;
22768;SDS011;13001;51.968;5.918;2023-04-22T01:13:50;298.73;;;281.40;;
22768;SDS011;13001;51.968;5.918;2023-04-22T01:16:17;302.22;;;284.43;;
22768;SDS011;13001;51.968;5.918;2023-04-22T01:18:45;308.02;;;290.12;;
22768;SDS011;13001;51.968;5.918;2023-04-22T01:21:12;302.77;;;285.13;;
22768;SDS011;13001;51.968;5.918;2023-04-22T01:23:39;305.62;;;287.45;;
22768;SDS011;13001;51.968;5.918;2023-04-22T01:26:06;287.60;;;270.40;;
22768;SDS011;13001;51.968;5.918;2023-04-22T01:28:34;280.87;;;263.85;;
22768;SDS011;13001;51.968;5.918;2023-04-22T01:31:01;262.72;;;246.65;;
22768;SDS011;13001;51.968;5.918;2023-04-22T01:33:29;249.88;;;234.47;;
22768;SDS011;13001;51.968;5.918;2023-04-22T01:35:56;280.80;;;263.80;;
22768;SDS011;13001;51.968;5.918;2023-04-22T01:38:23;280.97;;;264.00;;
22768;SDS011;13001;51.968;5.918;2023-04-22T01:40:51;297.85;;;279.63;;
22768;SDS011;13001;51.968;5.918;2023-04-22T01:43:18;289.02;;;271.55;;
22768;SDS011;13001;51.968;5.918;2023-04-22T01:45:45;288.90;;;271.43;;
22768;SDS011;13001;51.968;5.918;2023-04-22T01:48:14;282.48;;;265.27;;
22768;SDS011;13001;51.968;5.918;2023-04-22T01:50:42;273.62;;;256.55;;
22768;SDS011;13001;51.968;5.918;2023-04-22T01:53:09;272.15;;;254.90;;
22768;SDS011;13001;51.968;5.918;2023-04-22T01:55:37;304.02;;;285.07;;
22768;SDS011;13001;51.968;5.918;2023-04-22T01:58:04;315.82;;;296.05;;
22768;SDS011;13001;51.968;5.918;2023-04-22T02:00:31;316.98;;;297.07;;
22768;SDS011;13001;51.968;5.918;2023-04-22T02:02:59;318.50;;;298.17;;
22768;SDS011;13001;51.968;5.918;2023-04-22T02:05:26;311.37;;;291.90;;
22768;SDS011;13001;51.968;5.918;2023-04-22T02:07:53;331.82;;;311.12;;
22768;SDS011;13001;51.968;5.918;2023-04-22T02:10:21;335.77;;;314.82;;
22768;SDS011;13001;51.968;5.918;2023-04-22T02:12:48;345.83;;;323.90;;
22768;SDS011;13001;51.968;5.918;2023-04-22T02:15:16;368.12;;;344.40;;
22768;SDS011;13001;51.968;5.918;2023-04-22T02:17:43;348.98;;;326.52;;
22768;SDS011;13001;51.968;5.918;2023-04-22T02:20:11;340.27;;;318.50;;
22768;SDS011;13001;51.968;5.918;2023-04-22T02:22:39;260.35;;;244.00;;
22768;SDS011;13001;51.968;5.918;2023-04-22T02:25:08;266.80;;;249.80;;
22768;SDS011;13001;51.968;5.918;2023-04-22T02:27:37;271.23;;;254.13;;
22768;SDS011;13001;51.968;5.918;2023-04-22T02:30:05;309.48;;;289.85;;
22768;SDS011;13001;51.968;5.918;2023-04-22T02:32:32;332.52;;;311.40;;
22768;SDS011;13001;51.968;5.918;2023-04-22T02:35:01;389.68;;;364.12;;
22768;SDS011;13001;51.968;5.918;2023-04-22T02:37:30;408.92;;;381.47;;
22768;SDS011;13001;51.968;5.918;2023-04-22T02:39:57;375.32;;;350.43;;
22768;SDS011;13001;51.968;5.918;2023-04-22T02:42:25;394.67;;;368.00;;
22768;SDS011;13001;51.968;5.918;2023-04-22T02:44:52;406.32;;;378.55;;
22768;SDS011;13001;51.968;5.918;2023-04-22T02:47:19;403.82;;;376.52;;
22768;SDS011;13001;51.968;5.918;2023-04-22T02:49:47;400.95;;;373.87;;
22768;SDS011;13001;51.968;5.918;2023-04-22T02:52:14;410.17;;;382.77;;
22768;SDS011;13001;51.968;5.918;2023-04-22T02:54:41;459.37;;;428.10;;
22768;SDS011;13001;51.968;5.918;2023-04-22T02:57:09;450.48;;;419.95;;
22768;SDS011;13001;51.968;5.918;2023-04-22T02:59:36;410.87;;;383.45;;
22768;SDS011;13001;51.968;5.918;2023-04-22T03:02:03;431.17;;;402.55;;
22768;SDS011;13001;51.968;5.918;2023-04-22T03:04:30;463.95;;;433.48;;
22768;SDS011;13001;51.968;5.918;2023-04-22T03:06:58;464.70;;;434.50;;
22768;SDS011;13001;51.968;5.918;2023-04-22T03:09:26;468.55;;;438.22;;
22768;SDS011;13001;51.968;5.918;2023-04-22T03:11:54;477.07;;;446.05;;
22768;SDS011;13001;51.968;5.918;2023-04-22T03:14:21;502.78;;;470.23;;
22768;SDS011;13001;51.968;5.918;2023-04-22T03:16:48;475.62;;;445.23;;
22768;SDS011;13001;51.968;5.918;2023-04-22T03:19:16;481.57;;;450.65;;
22768;SDS011;13001;51.968;5.918;2023-04-22T03:21:43;500.32;;;467.80;;
22768;SDS011;13001;51.968;5.918;2023-04-22T03:24:10;481.70;;;450.70;;
22768;SDS011;13001;51.968;5.918;2023-04-22T03:26:37;463.48;;;433.53;;
22768;SDS011;13001;51.968;5.918;2023-04-22T03:29:05;476.33;;;445.12;;
22768;SDS011;13001;51.968;5.918;2023-04-22T03:31:32;472.40;;;441.60;;
22768;SDS011;13001;51.968;5.918;2023-04-22T03:33:59;467.53;;;437.03;;
22768;SDS011;13001;51.968;5.918;2023-04-22T03:36:26;431.30;;;403.32;;
22768;SDS011;13001;51.968;5.918;2023-04-22T03:38:54;407.70;;;381.63;;
22768;SDS011;13001;51.968;5.918;2023-04-22T03:41:21;396.73;;;371.50;;
22768;SDS011;13001;51.968;5.918;2023-04-22T03:43:50;379.48;;;355.18;;
22768;SDS011;13001;51.968;5.918;2023-04-22T03:46:17;346.70;;;324.95;;
22768;SDS011;13001;51.968;5.918;2023-04-22T03:48:44;338.92;;;317.62;;
22768;SDS011;13001;51.968;5.918;2023-04-22T03:51:12;337.83;;;317.03;;
22768;SDS011;13001;51.968;5.918;2023-04-22T03:53:39;331.77;;;310.88;;
22768;SDS011;13001;51.968;5.918;2023-04-22T03:56:06;327.02;;;306.55;;
22768;SDS011;13001;51.968;5.918;2023-04-22T03:58:33;324.80;;;304.27;;
22768;SDS011;13001;51.968;5.918;2023-04-22T04:01:02;325.35;;;304.70;;
22768;SDS011;13001;51.968;5.918;2023-04-22T04:03:29;332.95;;;311.60;;
22768;SDS011;13001;51.968;5.918;2023-04-22T04:05:56;308.70;;;289.27;;
22768;SDS011;13001;51.968;5.918;2023-04-22T04:08:23;315.73;;;295.93;;
22768;SDS011;13001;51.968;5.918;2023-04-22T04:10:51;339.08;;;317.30;;
22768;SDS011;13001;51.968;5.918;2023-04-22T04:13:18;329.90;;;308.50;;
22768;SDS011;13001;51.968;5.918;2023-04-22T04:15:45;342.25;;;320.10;;
22768;SDS011;13001;51.968;5.918;2023-04-22T04:18:13;361.12;;;337.57;;
22768;SDS011;13001;51.968;5.918;2023-04-22T04:20:40;376.93;;;352.50;;
22768;SDS011;13001;51.968;5.918;2023-04-22T04:23:07;384.20;;;359.07;;
22768;SDS011;13001;51.968;5.918;2023-04-22T04:25:34;386.25;;;360.95;;
22768;SDS011;13001;51.968;5.918;2023-04-22T04:28:04;404.85;;;378.18;;
22768;SDS011;13001;51.968;5.918;2023-04-22T04:30:34;415.35;;;388.23;;
22768;SDS011;13001;51.968;5.918;2023-04-22T04:33:02;417.18;;;389.60;;
22768;SDS011;13001;51.968;5.918;2023-04-22T04:35:34;426.90;;;399.17;;
22768;SDS011;13001;51.968;5.918;2023-04-22T04:38:04;434.80;;;406.57;;
22768;SDS011;13001;51.968;5.918;2023-04-22T04:40:32;454.75;;;424.95;;
22768;SDS011;13001;51.968;5.918;2023-04-22T04:43:01;449.77;;;420.55;;
22768;SDS011;13001;51.968;5.918;2023-04-22T04:45:29;453.48;;;424.08;;
22768;SDS011;13001;51.968;5.918;2023-04-22T04:47:57;458.97;;;428.40;;
22768;SDS011;13001;51.968;5.918;2023-04-22T04:50:25;442.98;;;414.15;;
22768;SDS011;13001;51.968;5.918;2023-04-22T04:52:53;446.77;;;417.93;;
22768;SDS011;13001;51.968;5.918;2023-04-22T04:55:21;429.25;;;401.45;;
22768;SDS011;13001;51.968;5.918;2023-04-22T04:57:48;440.17;;;411.87;;
22768;SDS011;13001;51.968;5.918;2023-04-22T05:00:15;435.55;;;407.70;;
22768;SDS011;13001;51.968;5.918;2023-04-22T05:02:42;417.48;;;390.87;;
22768;SDS011;13001;51.968;5.918;2023-04-22T05:05:10;426.20;;;398.98;;
22768;SDS011;13001;51.968;5.918;2023-04-22T05:07:37;415.75;;;389.05;;
22768;SDS011;13001;51.968;5.918;2023-04-22T05:10:05;412.67;;;386.37;;
22768;SDS011;13001;51.968;5.918;2023-04-22T05:12:34;417.45;;;390.50;;
22768;SDS011;13001;51.968;5.918;2023-04-22T05:15:01;412.77;;;386.00;;
22768;SDS011;13001;51.968;5.918;2023-04-22T05:17:28;416.00;;;388.90;;
22768;SDS011;13001;51.968;5.918;2023-04-22T05:19:56;421.90;;;394.37;;
22768;SDS011;13001;51.968;5.918;2023-04-22T05:22:23;433.80;;;405.33;;
22768;SDS011;13001;51.968;5.918;2023-04-22T05:24:50;422.93;;;395.53;;
22768;SDS011;13001;51.968;5.918;2023-04-22T05:27:18;427.13;;;399.35;;
22768;SDS011;13001;51.968;5.918;2023-04-22T05:29:45;412.25;;;385.57;;
22768;SDS011;13001;51.968;5.918;2023-04-22T05:32:12;423.03;;;395.50;;
22768;SDS011;13001;51.968;5.918;2023-04-22T05:34:41;419.88;;;392.55;;
22768;SDS011;13001;51.968;5.918;2023-04-22T05:37:08;418.63;;;391.00;;
22768;SDS011;13001;51.968;5.918;2023-04-22T05:39:36;417.22;;;390.25;;
22768;SDS011;13001;51.968;5.918;2023-04-22T05:42:03;413.45;;;386.67;;
22768;SDS011;13001;51.968;5.918;2023-04-22T05:44:30;430.63;;;402.10;;
22768;SDS011;13001;51.968;5.918;2023-04-22T05:46:58;426.35;;;398.13;;
22768;SDS011;13001;51.968;5.918;2023-04-22T05:49:25;423.97;;;396.10;;
22768;SDS011;13001;51.968;5.918;2023-04-22T05:51:52;429.98;;;401.75;;
22768;SDS011;13001;51.968;5.918;2023-04-22T05:54:19;437.35;;;408.30;;
22768;SDS011;13001;51.968;5.918;2023-04-22T05:56:47;433.87;;;405.35;;
22768;SDS011;13001;51.968;5.918;2023-04-22T05:59:14;433.53;;;404.92;;
22768;SDS011;13001;51.968;5.918;2023-04-22T06:01:41;443.57;;;414.40;;
22768;SDS011;13001;51.968;5.918;2023-04-22T06:04:09;443.87;;;413.98;;
22768;SDS011;13001;51.968;5.918;2023-04-22T06:06:37;451.05;;;420.48;;
22768;SDS011;13001;51.968;5.918;2023-04-22T06:09:05;462.27;;;430.67;;
22768;SDS011;13001;51.968;5.918;2023-04-22T06:11:32;475.17;;;442.33;;
22768;SDS011;13001;51.968;5.918;2023-04-22T06:14:00;480.15;;;446.70;;
22768;SDS011;13001;51.968;5.918;2023-04-22T06:16:27;515.05;;;478.00;;
22768;SDS011;13001;51.968;5.918;2023-04-22T06:18:54;518.97;;;481.07;;
22768;SDS011;13001;51.968;5.918;2023-04-22T06:21:22;526.45;;;487.62;;
22768;SDS011;13001;51.968;5.918;2023-04-22T06:23:49;535.95;;;495.88;;
22768;SDS011;13001;51.968;5.918;2023-04-22T06:26:16;553.00;;;512.12;;
22768;SDS011;13001;51.968;5.918;2023-04-22T06:28:44;536.52;;;499.48;;
22768;SDS011;13001;51.968;5.918;2023-04-22T06:31:11;467.05;;;437.75;;
22768;SDS011;13001;51.968;5.918;2023-04-22T06:33:38;445.52;;;418.10;;
22768;SDS011;13001;51.968;5.918;2023-04-22T06:36:05;431.55;;;405.07;;
22768;SDS011;13001;51.968;5.918;2023-04-22T06:38:33;441.68;;;414.20;;
22768;SDS011;13001;51.968;5.918;2023-04-22T06:41:00;462.25;;;433.35;;
22768;SDS011;13001;51.968;5.918;2023-04-22T06:43:27;477.37;;;446.80;;
22768;SDS011;13001;51.968;5.918;2023-04-22T06:45:54;497.50;;;463.77;;
22768;SDS011;13001;51.968;5.918;2023-04-22T06:48:22;605.95;;;562.38;;
22768;SDS011;13001;51.968;5.918;2023-04-22T06:50:49;754.33;;;698.25;;
22768;SDS011;13001;51.968;5.918;2023-04-22T06:53:17;896.10;;;824.63;;
22768;SDS011;13001;51.968;5.918;2023-04-22T06:55:44;944.30;;;863.90;;
22768;SDS011;13001;51.968;5.918;2023-04-22T06:58:11;756.02;;;696.30;;
22768;SDS011;13001;51.968;5.918;2023-04-22T07:00:39;705.25;;;652.33;;
22768;SDS011;13001;51.968;5.918;2023-04-22T07:03:06;618.87;;;571.80;;
22768;SDS011;13001;51.968;5.918;2023-04-22T07:05:33;574.88;;;531.13;;
22768;SDS011;13001;51.968;5.918;2023-04-22T07:08:00;599.58;;;553.50;;
22768;SDS011;13001;51.968;5.918;2023-04-22T07:10:28;688.75;;;633.85;;
22768;SDS011;13001;51.968;5.918;2023-04-22T07:12:55;756.78;;;696.70;;
22768;SDS011;13001;51.968;5.918;2023-04-22T07:15:22;750.92;;;691.77;;
22768;SDS011;13001;51.968;5.918;2023-04-22T07:17:50;787.02;;;725.35;;
22768;SDS011;13001;51.968;5.918;2023-04-22T07:20:18;791.08;;;728.15;;
22768;SDS011;13001;51.968;5.918;2023-04-22T07:22:45;541.55;;;503.85;;
22768;SDS011;13001;51.968;5.918;2023-04-22T07:25:12;329.80;;;310.98;;
22768;SDS011;13001;51.968;5.918;2023-04-22T07:27:39;439.02;;;413.33;;
22768;SDS011;13001;51.968;5.918;2023-04-22T07:30:07;502.67;;;471.70;;
22768;SDS011;13001;51.968;5.918;2023-04-22T07:32:34;384.40;;;362.57;;
22768;SDS011;13001;51.968;5.918;2023-04-22T07:35:02;442.30;;;416.27;;
22768;SDS011;13001;51.968;5.918;2023-04-22T07:37:29;378.67;;;356.98;;
22768;SDS011;13001;51.968;5.918;2023-04-22T07:39:58;364.80;;;343.55;;
22768;SDS011;13001;51.968;5.918;2023-04-22T07:42:25;367.10;;;345.93;;
22768;SDS011;13001;51.968;5.918;2023-04-22T07:44:52;356.73;;;335.88;;
22768;SDS011;13001;51.968;5.918;2023-04-22T07:47:20;455.45;;;426.90;;
22768;SDS011;13001;51.968;5.918;2023-04-22T07:49:47;437.15;;;410.15;;
22768;SDS011;13001;51.968;5.918;2023-04-22T07:52:14;498.60;;;467.00;;
22768;SDS011;13001;51.968;5.918;2023-04-22T07:54:41;500.27;;;468.50;;
22768;SDS011;13001;51.968;5.918;2023-04-22T07:57:09;461.60;;;433.12;;
22768;SDS011;13001;51.968;5.918;2023-04-22T07:59:36;432.08;;;406.30;;
22768;SDS011;13001;51.968;5.918;2023-04-22T08:02:03;455.45;;;427.50;;
22768;SDS011;13001;51.968;5.918;2023-04-22T08:04:30;467.87;;;439.78;;
22768;SDS011;13001;51.968;5.918;2023-04-22T08:06:58;478.08;;;449.10;;
22768;SDS011;13001;51.968;5.918;2023-04-22T08:09:27;415.05;;;390.38;;
22768;SDS011;13001;51.968;5.918;2023-04-22T08:11:54;501.93;;;470.82;;
22768;SDS011;13001;51.968;5.918;2023-04-22T08:14:22;463.93;;;435.97;;
22768;SDS011;13001;51.968;5.918;2023-04-22T08:16:51;452.13;;;424.70;;
22768;SDS011;13001;51.968;5.918;2023-04-22T08:19:19;392.45;;;368.82;;
22768;SDS011;13001;51.968;5.918;2023-04-22T08:21:46;305.18;;;286.77;;
22768;SDS011;13001;51.968;5.918;2023-04-22T08:24:13;450.35;;;422.90;;
22768;SDS011;13001;51.968;5.918;2023-04-22T08:26:41;401.13;;;376.52;;
22768;SDS011;13001;51.968;5.918;2023-04-22T08:29:08;488.70;;;458.42;;
22768;SDS011;13001;51.968;5.918;2023-04-22T08:31:35;519.05;;;486.52;;
22768;SDS011;13001;51.968;5.918;2023-04-22T08:34:02;504.92;;;473.67;;
22768;SDS011;13001;51.968;5.918;2023-04-22T08:36:30;517.77;;;485.25;;
22768;SDS011;13001;51.968;5.918;2023-04-22T08:38:57;526.75;;;493.70;;
22768;SDS011;13001;51.968;5.918;2023-04-22T08:41:24;429.20;;;400.48;;
22768;SDS011;13001;51.968;5.918;2023-04-22T08:43:52;508.05;;;475.30;;
22768;SDS011;13001;51.968;5.918;2023-04-22T08:46:19;535.10;;;500.95;;
22768;SDS011;13001;51.968;5.918;2023-04-22T08:48:49;506.55;;;473.75;;
22768;SDS011;13001;51.968;5.918;2023-04-22T08:51:17;468.52;;;438.65;;
22768;SDS011;13001;51.968;5.918;2023-04-22T08:53:44;449.62;;;421.05;;
22768;SDS011;13001;51.968;5.918;2023-04-22T08:56:12;365.05;;;341.45;;
22768;SDS011;13001;51.968;5.918;2023-04-22T08:58:40;413.55;;;385.63;;
22768;SDS011;13001;51.968;5.918;2023-04-22T09:01:08;426.40;;;398.23;;
22768;SDS011;13001;51.968;5.918;2023-04-22T09:03:35;429.83;;;401.05;;
22768;SDS011;13001;51.968;5.918;2023-04-22T09:06:04;436.23;;;408.20;;
22768;SDS011;13001;51.968;5.918;2023-04-22T09:08:31;495.52;;;463.95;;
22768;SDS011;13001;51.968;5.918;2023-04-22T09:10:59;489.20;;;457.88;;
22768;SDS011;13001;51.968;5.918;2023-04-22T09:13:26;515.50;;;482.62;;
22768;SDS011;13001;51.968;5.918;2023-04-22T09:15:53;533.90;;;498.88;;
22768;SDS011;13001;51.968;5.918;2023-04-22T09:18:21;533.30;;;498.90;;
22768;SDS011;13001;51.968;5.918;2023-04-22T09:20:48;538.80;;;504.38;;
22768;SDS011;13001;51.968;5.918;2023-04-22T09:23:16;541.70;;;507.17;;
22768;SDS011;13001;51.968;5.918;2023-04-22T09:25:43;521.40;;;488.42;;
22768;SDS011;13001;51.968;5.918;2023-04-22T09:28:11;540.50;;;506.67;;
22768;SDS011;13001;51.968;5.918;2023-04-22T09:30:40;514.20;;;481.93;;
22768;SDS011;13001;51.968;5.918;2023-04-22T09:33:07;509.40;;;477.05;;
22768;SDS011;13001;51.968;5.918;2023-04-22T09:35:36;520.33;;;486.90;;
22768;SDS011;13001;51.968;5.918;2023-04-22T09:38:04;531.25;;;497.45;;
22768;SDS011;13001;51.968;5.918;2023-04-22T09:40:36;480.18;;;449.20;;
22768;SDS011;13001;51.968;5.918;2023-04-22T09:43:05;422.73;;;395.65;;
22768;SDS011;13001;51.968;5.918;2023-04-22T09:45:36;321.93;;;300.75;;
22768;SDS011;13001;51.968;5.918;2023-04-22T09:48:10;465.20;;;432.65;;
22768;SDS011;13001;51.968;5.918;2023-04-22T09:50:38;425.38;;;396.07;;
22768;SDS011;13001;51.968;5.918;2023-04-22T09:53:06;574.45;;;533.65;;
22768;SDS011;13001;51.968;5.918;2023-04-22T09:55:36;618.10;;;573.73;;
22768;SDS011;13001;51.968;5.918;2023-04-22T09:58:09;705.73;;;653.45;;
22768;SDS011;13001;51.968;5.918;2023-04-22T10:00:56;668.37;;;619.13;;
22768;SDS011;13001;51.968;5.918;2023-04-22T10:03:08;708.85;;;655.65;;
22768;SDS011;13001;51.968;5.918;2023-04-22T10:05:36;715.55;;;662.12;;
22768;SDS011;13001;51.968;5.918;2023-04-22T10:08:04;768.27;;;708.72;;
22768;SDS011;13001;51.968;5.918;2023-04-22T10:10:32;748.15;;;692.48;;
22768;SDS011;13001;51.968;5.918;2023-04-22T10:13:00;756.00;;;699.70;;
22768;SDS011;13001;51.968;5.918;2023-04-22T10:15:33;740.33;;;684.70;;
22768;SDS011;13001;51.968;5.918;2023-04-22T10:18:02;762.48;;;704.17;;
22768;SDS011;13001;51.968;5.918;2023-04-22T10:20:29;792.12;;;731.87;;
22768;SDS011;13001;51.968;5.918;2023-04-22T10:22:58;805.95;;;743.25;;
22768;SDS011;13001;51.968;5.918;2023-04-22T10:25:25;790.25;;;730.13;;
22768;SDS011;13001;51.968;5.918;2023-04-22T10:27:53;776.20;;;717.48;;
22768;SDS011;13001;51.968;5.918;2023-04-22T10:30:27;788.37;;;728.77;;
22768;SDS011;13001;51.968;5.918;2023-04-22T10:32:55;756.13;;;700.38;;
22768;SDS011;13001;51.968;5.918;2023-04-22T10:35:26;727.50;;;673.28;;
22768;SDS011;13001;51.968;5.918;2023-04-22T10:37:54;902.30;;;831.80;;
22768;SDS011;13001;51.968;5.918;2023-04-22T10:40:22;887.63;;;819.03;;
22768;SDS011;13001;51.968;5.918;2023-04-22T10:42:50;879.48;;;812.92;;
22768;SDS011;13001;51.968;5.918;2023-04-22T10:45:19;932.27;;;857.27;;
22768;SDS011;13001;51.968;5.918;2023-04-22T10:47:47;898.10;;;828.27;;
22768;SDS011;13001;51.968;5.918;2023-04-22T10:50:19;919.52;;;846.35;;
22768;SDS011;13001;51.968;5.918;2023-04-22T10:52:51;967.87;;;885.93;;
22768;SDS011;13001;51.968;5.918;2023-04-22T10:55:15;997.45;;;910.20;;
22768;SDS011;13001;51.968;5.918;2023-04-22T10:57:43;987.23;;;899.15;;
22768;SDS011;13001;51.968;5.918;2023-04-22T11:02:46;925.33;;;849.27;;
22768;SDS011;13001;51.968;5.918;2023-04-22T11:05:20;839.37;;;774.80;;
22768;SDS011;13001;51.968;5.918;2023-04-22T11:07:48;835.35;;;771.48;;
22768;SDS011;13001;51.968;5.918;2023-04-22T11:13:02;835.55;;;770.83;;
22768;SDS011;13001;51.968;5.918;2023-04-22T11:15:33;826.60;;;763.30;;
22768;SDS011;13001;51.968;5.918;2023-04-22T11:18:01;813.47;;;751.37;;
22768;SDS011;13001;51.968;5.918;2023-04-22T11:20:29;803.63;;;741.45;;
22768;SDS011;13001;51.968;5.918;2023-04-22T11:22:56;799.98;;;739.17;;
22768;SDS011;13001;51.968;5.918;2023-04-22T11:25:24;780.17;;;719.62;;
22768;SDS011;13001;51.968;5.918;2023-04-22T11:27:52;843.52;;;776.40;;
22768;SDS011;13001;51.968;5.918;2023-04-22T11:30:21;830.48;;;764.55;;
22768;SDS011;13001;51.968;5.918;2023-04-22T11:32:49;839.78;;;771.77;;
22768;SDS011;13001;51.968;5.918;2023-04-22T11:35:18;812.05;;;750.85;;
22768;SDS011;13001;51.968;5.918;2023-04-22T11:37:52;797.25;;;738.00;;
22768;SDS011;13001;51.968;5.918;2023-04-22T11:40:18;799.17;;;738.80;;
22768;SDS011;13001;51.968;5.918;2023-04-22T11:42:47;804.03;;;743.35;;
22768;SDS011;13001;51.968;5.918;2023-04-22T11:45:15;824.13;;;759.55;;
22768;SDS011;13001;51.968;5.918;2023-04-22T11:47:42;806.38;;;744.15;;
22768;SDS011;13001;51.968;5.918;2023-04-22T11:50:12;802.15;;;739.90;;
22768;SDS011;13001;51.968;5.918;2023-04-22T11:52:42;805.87;;;743.20;;
22768;SDS011;13001;51.968;5.918;2023-04-22T11:55:23;781.87;;;722.87;;
22768;SDS011;13001;51.968;5.918;2023-04-22T12:00:30;830.27;;;764.25;;
22768;SDS011;13001;51.968;5.918;2023-04-22T12:02:59;841.92;;;774.10;;
22768;SDS011;13001;51.968;5.918;2023-04-22T12:05:33;800.92;;;738.83;;
22768;SDS011;13001;51.968;5.918;2023-04-22T12:08:01;859.33;;;790.20;;
22768;SDS011;13001;51.968;5.918;2023-04-22T12:10:28;819.22;;;755.22;;
22768;SDS011;13001;51.968;5.918;2023-04-22T12:12:58;765.60;;;707.30;;
22768;SDS011;13001;51.968;5.918;2023-04-22T12:15:26;920.23;;;845.00;;
22768;SDS011;13001;51.968;5.918;2023-04-22T12:17:55;856.87;;;784.80;;
22768;SDS011;13001;51.968;5.918;2023-04-22T12:20:22;958.13;;;874.35;;
22768;SDS011;13001;51.968;5.918;2023-04-22T12:22:51;945.90;;;868.13;;
22768;SDS011;13001;51.968;5.918;2023-04-22T12:25:18;919.95;;;844.70;;
22768;SDS011;13001;51.968;5.918;2023-04-22T12:27:45;962.95;;;882.67;;
22768;SDS011;13001;51.968;5.918;2023-04-22T12:30:13;920.55;;;847.93;;
22768;SDS011;13001;51.968;5.918;2023-04-22T12:32:40;826.30;;;763.67;;
22768;SDS011;13001;51.968;5.918;2023-04-22T12:35:08;813.03;;;751.83;;
22768;SDS011;13001;51.968;5.918;2023-04-22T12:37:35;754.30;;;697.47;;
22768;SDS011;13001;51.968;5.918;2023-04-22T12:40:02;724.77;;;669.33;;
22768;SDS011;13001;51.968;5.918;2023-04-22T12:42:30;701.45;;;647.00;;
22768;SDS011;13001;51.968;5.918;2023-04-22T12:44:58;674.60;;;621.77;;
22768;SDS011;13001;51.968;5.918;2023-04-22T12:47:25;599.33;;;556.58;;
22768;SDS011;13001;51.968;5.918;2023-04-22T12:49:52;635.50;;;588.00;;
22768;SDS011;13001;51.968;5.918;2023-04-22T12:52:19;596.17;;;554.10;;
22768;SDS011;13001;51.968;5.918;2023-04-22T12:54:47;630.40;;;583.50;;
22768;SDS011;13001;51.968;5.918;2023-04-22T12:57:14;654.10;;;604.75;;
22768;SDS011;13001;51.968;5.918;2023-04-22T12:59:41;625.22;;;580.35;;
22768;SDS011;13001;51.968;5.918;2023-04-22T13:02:10;651.07;;;602.20;;
22768;SDS011;13001;51.968;5.918;2023-04-22T13:04:37;628.42;;;583.62;;
22768;SDS011;13001;51.968;5.918;2023-04-22T13:07:05;629.48;;;585.17;;
22768;SDS011;13001;51.968;5.918;2023-04-22T13:09:32;599.80;;;558.85;;
22768;SDS011;13001;51.968;5.918;2023-04-22T13:11:59;621.95;;;578.67;;
22768;SDS011;13001;51.968;5.918;2023-04-22T13:14:28;643.55;;;598.02;;
22768;SDS011;13001;51.968;5.918;2023-04-22T13:16:55;672.90;;;622.77;;
22768;SDS011;13001;51.968;5.918;2023-04-22T13:19:23;731.63;;;675.87;;
22768;SDS011;13001;51.968;5.918;2023-04-22T13:21:52;796.77;;;733.70;;
22768;SDS011;13001;51.968;5.918;2023-04-22T13:24:19;787.27;;;725.65;;
22768;SDS011;13001;51.968;5.918;2023-04-22T13:26:46;777.95;;;716.85;;
22768;SDS011;13001;51.968;5.918;2023-04-22T13:29:14;821.20;;;756.52;;
22768;SDS011;13001;51.968;5.918;2023-04-22T13:31:41;847.65;;;780.25;;
22768;SDS011;13001;51.968;5.918;2023-04-22T13:34:10;836.00;;;769.92;;
22768;SDS011;13001;51.968;5.918;2023-04-22T13:36:37;868.87;;;798.60;;
22768;SDS011;13001;51.968;5.918;2023-04-22T13:39:05;855.97;;;789.43;;
22768;SDS011;13001;51.968;5.918;2023-04-22T13:41:34;849.17;;;782.92;;
22768;SDS011;13001;51.968;5.918;2023-04-22T13:44:01;849.63;;;783.67;;
22768;SDS011;13001;51.968;5.918;2023-04-22T13:46:29;777.23;;;717.33;;
22768;SDS011;13001;51.968;5.918;2023-04-22T13:48:56;715.67;;;661.07;;
22768;SDS011;13001;51.968;5.918;2023-04-22T13:51:24;649.35;;;600.27;;
22768;SDS011;13001;51.968;5.918;2023-04-22T13:53:51;566.15;;;525.33;;
22768;SDS011;13001;51.968;5.918;2023-04-22T13:56:18;523.52;;;486.25;;
22768;SDS011;13001;51.968;5.918;2023-04-22T13:58:46;493.85;;;459.10;;
22768;SDS011;13001;51.968;5.918;2023-04-22T14:01:13;463.68;;;431.02;;
22768;SDS011;13001;51.968;5.918;2023-04-22T14:03:40;412.02;;;382.43;;
22768;SDS011;13001;51.968;5.918;2023-04-22T14:06:08;350.27;;;325.52;;